Silver Shadow — C6FN6 — position and weather

sailwx.info

Track history (hours):
 
Tides and Currents Weather Stations Pressure Air Temp Water Temp Dewpoint Dewpoint Depression Visibility Wind Speed Wind Dir Waves Ship Positions

Silver Shadow

Operator: V Ships Leisure SAM

Last reported at 2020-Jan-20 20:59 UTC. Time now 2020-Jan-24 01:20 UTC.
Position N 18°20' W 064°56'.

Length 186 m; draft 6.2 m.

Type: Ship. MMSI: 308628000.

Date/timePositionNaut miles runAvg speedWind from/ knotsBaromVisibWave heightAir tempDewpointWater temp
2020-Jan-20 20:59N 18°20' W 064°56'0 0.0
2020-Jan-20 18:29N 18°20' W 064°56'0 0.0
2020-Jan-20 16:59N 18°20' W 064°56'0 0.0
2020-Jan-20 14:59N 18°20' W 064°56'0 0.0
2020-Jan-20 13:29N 18°20' W 064°56'0 0.0
2020-Jan-20 11:59N 18°20' W 064°56'0 0.2
2020-Jan-20 11:00N 18°20' W 064°56'11 7.2
2020-Jan-20 09:30N 18°09' W 064°53'4 7.1
2020-Jan-20 09:00N 18°06' W 064°54'5 2.7
2020-Jan-20 07:00N 18°09' W 064°49'6 5.7
2020-Jan-20 05:59N 18°11' W 064°55'4 8.8
2020-Jan-20 05:30N 18°14' W 064°57'4 8.7
2020-Jan-20 05:00N 18°17' W 065°01'3 2.3
2020-Jan-20 03:30N 18°18' W 065°04'6 6.4
2020-Jan-20 02:30N 18°16' W 064°58'6 6.0
2020-Jan-20 01:30N 18°15' W 064°51'3 6.0
2020-Jan-20 00:59N 18°16' W 064°48'  
Track history (hours):
 
Tides and Currents Weather Stations Pressure Air Temp Water Temp Dewpoint Dewpoint Depression Visibility Wind Speed Wind Dir Waves Ship Positions

Silver Shadow

Operator: V Ships Leisure SAM

Last reported at 2020-Jan-20 20:59 UTC. Time now 2020-Jan-24 01:20 UTC.
Position N 18°20' W 064°56'.

Length 186 m; draft 6.2 m.

Type: Ship. MMSI: 308628000.

Date/timePositionNaut miles runAvg speedWind from/ knotsBaromVisibWave heightAir tempDewpointWater temp
2020-Jan-20 20:59N 18°20' W 064°56'0 0.0
2020-Jan-20 18:29N 18°20' W 064°56'0 0.0
2020-Jan-20 16:59N 18°20' W 064°56'0 0.0
2020-Jan-20 14:59N 18°20' W 064°56'0 0.0
2020-Jan-20 13:29N 18°20' W 064°56'0 0.0
2020-Jan-20 11:59N 18°20' W 064°56'0 0.2
2020-Jan-20 11:00N 18°20' W 064°56'11 7.2
2020-Jan-20 09:30N 18°09' W 064°53'4 7.1
2020-Jan-20 09:00N 18°06' W 064°54'5 2.7
2020-Jan-20 07:00N 18°09' W 064°49'6 5.7
2020-Jan-20 05:59N 18°11' W 064°55'4 8.8
2020-Jan-20 05:30N 18°14' W 064°57'4 8.7
2020-Jan-20 05:00N 18°17' W 065°01'3 2.3
2020-Jan-20 03:30N 18°18' W 065°04'6 6.4
2020-Jan-20 02:30N 18°16' W 064°58'6 6.0
2020-Jan-20 01:30N 18°15' W 064°51'3 6.0
2020-Jan-20 00:59N 18°16' W 064°48'  

Dump ship's entire track history